Wetterdaten: Woche 16.02.26 - 22.02.26 (KW8)
Datum Zeit Temp. Aussen Temp. o. S. Temp +5cm Feuchte Auss Luftdruck Regen Sonnenschein Regendauer Solar Windböen Empfang
16.02.2026 00:00 0,6 °C -0,1 °C -3,9 °C 97 % 996,4 hPa 0,5 l/m² 0,00 h 0,30 h 0 W/m² 13,8 km/h (3 Bft) 96,81 %
16.02.2026 01:00 0,5 °C -0,1 °C -3,8 °C 98 % 995,6 hPa 1,0 l/m² 0,00 h 0,20 h 0 W/m² 14,5 km/h (3 Bft) 96,64 %
16.02.2026 02:00 0,7 °C 0,0 °C -3,3 °C 98 % 995,0 hPa 0,7 l/m² 0,00 h 0,00 h 0 W/m² 13,3 km/h (3 Bft) 96,62 %
16.02.2026 03:00 1,1 °C 0,6 °C -2,9 °C 98 % 994,5 hPa 1,2 l/m² 0,00 h 0,20 h 0 W/m² 9,7 km/h (2 Bft) 97,23 %
16.02.2026 04:00 2,1 °C 1,6 °C -2,0 °C 98 % 994,4 hPa 1,0 l/m² 0,00 h 0,30 h 0 W/m² 7,4 km/h (2 Bft) 96,48 %
16.02.2026 05:00 3,4 °C 2,7 °C -1,0 °C 99 % 994,9 hPa 1,4 l/m² 0,00 h 0,23 h 0 W/m² 12,2 km/h (3 Bft) 94,61 %
16.02.2026 06:00 3,8 °C 3,1 °C -0,6 °C 99 % 995,0 hPa 1,0 l/m² 0,00 h 0,07 h 0 W/m² 12,0 km/h (2 Bft) 97,25 %
16.02.2026 07:00 4,2 °C 3,3 °C 0,0 °C 99 % 995,1 hPa 1,2 l/m² 0,00 h 0,23 h 0 W/m² 11,9 km/h (2 Bft) 94,83 %
16.02.2026 08:00 4,5 °C 3,8 °C 0,2 °C 99 % 995,4 hPa 0,2 l/m² 0,00 h 0,07 h 29 W/m² 10,8 km/h (2 Bft) 97,87 %
16.02.2026 09:00 4,9 °C 4,7 °C 0,8 °C 99 % 995,5 hPa 0,0 l/m² 0,00 h 0,00 h 77 W/m² 12,9 km/h (3 Bft) 96,79 %
16.02.2026 10:00 5,6 °C 6,7 °C 1,6 °C 99 % 995,4 hPa 0,0 l/m² 0,20 h 0,00 h 152 W/m² 14,8 km/h (3 Bft) 97,71 %
16.02.2026 11:00 7,1 °C 10,6 °C 3,2 °C 96 % 995,1 hPa 0,0 l/m² 0,57 h 0,00 h 261 W/m² 18,5 km/h (3 Bft) 95,16 %
16.02.2026 12:00 7,3 °C 7,5 °C 2,4 °C 90 % 994,8 hPa 0,2 l/m² 0,13 h 0,03 h 129 W/m² 15,9 km/h (3 Bft) 98,64 %
16.02.2026 13:00 6,6 °C 6,4 °C 1,9 °C 91 % 994,6 hPa 0,0 l/m² 0,00 h 0,00 h 96 W/m² 15,6 km/h (3 Bft) 96,66 %
16.02.2026 14:00 6,2 °C 5,8 °C 1,7 °C 93 % 994,6 hPa 0,5 l/m² 0,00 h 0,03 h 67 W/m² 13,5 km/h (3 Bft) 96,35 %
16.02.2026 15:00 6,3 °C 6,6 °C 1,6 °C 94 % 994,9 hPa 1,2 l/m² 0,23 h 0,17 h 122 W/m² 16,6 km/h (3 Bft) 98,34 %
16.02.2026 16:00 4,3 °C 3,8 °C 0,0 °C 94 % 995,6 hPa 1,2 l/m² 0,07 h 0,03 h 37 W/m² 5,9 km/h (2 Bft) 96,92 %
16.02.2026 17:00 4,5 °C 3,8 °C 0,1 °C 96 % 995,9 hPa 0,0 l/m² 0,00 h 0,00 h 13 W/m² 0,0 km/h (0 Bft) 97,44 %
16.02.2026 18:00 4,1 °C 3,3 °C -0,2 °C 96 % 996,6 hPa 0,0 l/m² 0,00 h 0,00 h 0 W/m² 2,5 km/h (1 Bft) 95,76 %
16.02.2026 19:00 4,0 °C 3,4 °C -0,0 °C 96 % 997,2 hPa 0,5 l/m² 0,00 h 0,00 h 0 W/m² 4,1 km/h (1 Bft) 99,08 %
16.02.2026 20:00 4,2 °C 3,6 °C 0,0 °C 97 % 997,5 hPa 2,6 l/m² 0,00 h 0,27 h 0 W/m² 8,7 km/h (2 Bft) 96,58 %
16.02.2026 21:00 3,6 °C 2,8 °C -0,6 °C 97 % 998,0 hPa 0,5 l/m² 0,00 h 0,20 h 0 W/m² 9,8 km/h (2 Bft) 96,58 %
16.02.2026 22:00 3,4 °C 2,8 °C -0,6 °C 97 % 998,8 hPa 0,2 l/m² 0,00 h 0,00 h 0 W/m² 8,5 km/h (2 Bft) 98,65 %
16.02.2026 23:00 3,4 °C 2,8 °C -0,6 °C 97 % 999,7 hPa 0,2 l/m² 0,00 h 0,00 h 0 W/m² 10,1 km/h (2 Bft) 96,15 %
17.02.2026 00:00 3,4 °C 2,8 °C -0,6 °C 97 % 1000,4 hPa 0,0 l/m² 0,00 h 0,00 h 0 W/m² 8,5 km/h (2 Bft) 97,55 %
17.02.2026 01:00 3,3 °C 2,8 °C -0,6 °C 98 % 1001,1 hPa 0,0 l/m² 0,00 h 0,00 h 0 W/m² 10,9 km/h (2 Bft) 97,04 %
17.02.2026 02:00 3,3 °C 2,8 °C -0,6 °C 98 % 1001,9 hPa 1,0 l/m² 0,00 h 0,00 h 0 W/m² 7,1 km/h (2 Bft) 98,58 %
17.02.2026 03:00 3,3 °C 2,8 °C -0,4 °C 98 % 1002,3 hPa 1,0 l/m² 0,00 h 0,03 h 0 W/m² 8,5 km/h (2 Bft) 95,88 %
17.02.2026 04:00 3,3 °C 2,5 °C -0,4 °C 98 % 1002,7 hPa 1,7 l/m² 0,00 h 0,00 h 0 W/m² 6,0 km/h (2 Bft) 97,90 %
17.02.2026 05:00 3,2 °C 2,7 °C -0,3 °C 98 % 1003,3 hPa 0,0 l/m² 0,00 h 0,00 h 0 W/m² 2,0 km/h (1 Bft) 98,65 %
17.02.2026 06:00 3,6 °C 2,9 °C 0,0 °C 98 % 1003,8 hPa 0,0 l/m² 0,00 h 0,00 h 0 W/m² 0,8 km/h (0 Bft) 96,03 %
17.02.2026 07:00 4,1 °C 3,8 °C 0,6 °C 98 % 1004,4 hPa 0,0 l/m² 0,00 h 0,00 h 5 W/m² 7,0 km/h (2 Bft) 96,99 %
17.02.2026 08:00 4,2 °C 3,9 °C 0,6 °C 99 % 1005,1 hPa 0,0 l/m² 0,00 h 0,00 h 14 W/m² 9,8 km/h (2 Bft) 98,84 %
17.02.2026 09:00 4,2 °C 3,9 °C 0,6 °C 98 % 1005,8 hPa 0,2 l/m² 0,00 h 0,00 h 26 W/m² 12,3 km/h (3 Bft) 95,05 %
17.02.2026 10:00 4,4 °C 4,3 °C 0,9 °C 98 % 1006,5 hPa 0,2 l/m² 0,00 h 0,00 h 73 W/m² 12,0 km/h (2 Bft) 98,77 %
17.02.2026 11:00 4,5 °C 4,4 °C 0,9 °C 97 % 1007,7 hPa 1,7 l/m² 0,03 h 0,10 h 74 W/m² 16,6 km/h (3 Bft) 98,00 %
17.02.2026 12:00 4,7 °C 4,9 °C 1,1 °C 97 % 1008,4 hPa 0,0 l/m² 0,00 h 0,00 h 132 W/m² 11,7 km/h (2 Bft) 95,85 %
17.02.2026 13:00 5,5 °C 6,4 °C 1,5 °C 95 % 1008,9 hPa 0,0 l/m² 0,20 h 0,00 h 150 W/m² 16,7 km/h (3 Bft) 99,26 %
17.02.2026 14:00 6,1 °C 8,2 °C 1,6 °C 92 % 1009,2 hPa 0,2 l/m² 0,53 h 0,00 h 251 W/m² 17,5 km/h (3 Bft) 96,44 %
17.02.2026 15:00 6,2 °C 7,6 °C 1,5 °C 91 % 1009,6 hPa 0,0 l/m² 0,63 h 0,00 h 188 W/m² 17,6 km/h (3 Bft) 96,29 %
17.02.2026 16:00 5,7 °C 5,5 °C 1,5 °C 89 % 1010,2 hPa 0,7 l/m² 0,47 h 0,07 h 120 W/m² 23,2 km/h (4 Bft) 98,92 %
17.02.2026 17:00 4,0 °C 3,4 °C -0,4 °C 92 % 1011,2 hPa 0,2 l/m² 0,00 h 0,00 h 13 W/m² 17,5 km/h (3 Bft) 96,80 %
17.02.2026 18:00 3,4 °C 2,7 °C -0,5 °C 92 % 1012,2 hPa 0,0 l/m² 0,00 h 0,00 h 0 W/m² 15,7 km/h (3 Bft) 97,43 %
17.02.2026 19:00 3,2 °C 2,5 °C -0,6 °C 94 % 1012,9 hPa 0,0 l/m² 0,00 h 0,00 h 0 W/m² 17,9 km/h (3 Bft) 97,07 %
17.02.2026 20:00 3,2 °C 2,8 °C -0,8 °C 94 % 1013,4 hPa 0,2 l/m² 0,00 h 0,03 h 0 W/m² 17,1 km/h (3 Bft) 97,16 %
17.02.2026 21:00 3,0 °C 2,4 °C -1,0 °C 94 % 1013,8 hPa 0,0 l/m² 0,00 h 0,00 h 0 W/m² 14,6 km/h (3 Bft) 98,91 %
17.02.2026 22:00 2,8 °C 2,3 °C -1,0 °C 93 % 1014,0 hPa 0,0 l/m² 0,00 h 0,00 h 0 W/m² 14,4 km/h (3 Bft) 94,91 %
17.02.2026 23:00 2,7 °C 2,2 °C -1,1 °C 93 % 1014,5 hPa 0,0 l/m² 0,00 h 0,00 h 0 W/m² 13,2 km/h (3 Bft) 99,08 %
18.02.2026 00:00 2,8 °C 2,2 °C -1,1 °C 93 % 1014,7 hPa 0,0 l/m² 0,00 h 0,00 h 0 W/m² 11,8 km/h (2 Bft) 93,94 %
18.02.2026 01:00 2,7 °C 2,2 °C -1,1 °C 92 % 1015,0 hPa 0,0 l/m² 0,00 h 0,00 h 0 W/m² 11,9 km/h (2 Bft) 95,99 %
18.02.2026 02:00 2,4 °C 1,8 °C -1,1 °C 92 % 1015,3 hPa 0,0 l/m² 0,00 h 0,00 h 0 W/m² 8,1 km/h (2 Bft) 98,17 %
18.02.2026 03:00 2,2 °C 1,7 °C -1,6 °C 90 % 1015,2 hPa 0,0 l/m² 0,00 h 0,00 h 0 W/m² 5,0 km/h (1 Bft) 96,01 %
18.02.2026 04:00 2,0 °C 1,7 °C -1,7 °C 90 % 1014,9 hPa 0,0 l/m² 0,00 h 0,00 h 0 W/m² 8,0 km/h (2 Bft) 97,94 %
18.02.2026 05:00 1,8 °C 1,1 °C -1,9 °C 88 % 1014,9 hPa 0,0 l/m² 0,00 h 0,00 h 0 W/m² 6,9 km/h (2 Bft) 95,83 %
18.02.2026 06:00 1,6 °C 1,1 °C -2,2 °C 88 % 1014,9 hPa 0,0 l/m² 0,00 h 0,00 h 0 W/m² 1,0 km/h (0 Bft) 99,24 %
18.02.2026 07:00 1,5 °C 0,9 °C -2,2 °C 88 % 1014,8 hPa 0,0 l/m² 0,00 h 0,00 h 4 W/m² 0,2 km/h (0 Bft) 96,93 %
18.02.2026 08:00 1,5 °C 1,3 °C -2,0 °C 89 % 1014,8 hPa 0,0 l/m² 0,00 h 0,00 h 23 W/m² 0,6 km/h (0 Bft) 96,44 %
18.02.2026 09:00 1,9 °C 2,4 °C -1,4 °C 89 % 1014,5 hPa 0,0 l/m² 0,00 h 0,00 h 73 W/m² 2,7 km/h (1 Bft) 98,66 %
18.02.2026 10:00 2,5 °C 2,9 °C -1,1 °C 87 % 1014,0 hPa 0,0 l/m² 0,03 h 0,00 h 91 W/m² 5,3 km/h (1 Bft) 95,03 %
18.02.2026 11:00 3,7 °C 7,8 °C 1,5 °C 81 % 1013,7 hPa 0,0 l/m² 1,00 h 0,00 h 282 W/m² 11,5 km/h (2 Bft) 97,73 %
18.02.2026 12:00 4,5 °C 7,0 °C 1,5 °C 77 % 1013,2 hPa 0,0 l/m² 0,93 h 0,00 h 277 W/m² 13,4 km/h (3 Bft) 98,35 %
18.02.2026 13:00 5,9 °C 12,4 °C 2,0 °C 73 % 1012,2 hPa 0,0 l/m² 0,93 h 0,00 h 473 W/m² 17,4 km/h (3 Bft) 97,45 %
18.02.2026 14:00 6,6 °C 12,1 °C 1,7 °C 70 % 1010,7 hPa 0,0 l/m² 1,00 h 0,00 h 415 W/m² 16,2 km/h (3 Bft) 96,88 %
18.02.2026 15:00 7,1 °C 11,3 °C 2,0 °C 69 % 1009,5 hPa 0,0 l/m² 0,98 h 0,00 h 309 W/m² 14,6 km/h (3 Bft) 97,92 %
18.02.2026 16:00 5,7 °C 5,4 °C 1,1 °C 73 % 1008,3 hPa 0,0 l/m² 0,30 h 0,00 h 84 W/m² 14,4 km/h (3 Bft) 96,48 %
18.02.2026 17:00 4,9 °C 4,1 °C 0,3 °C 74 % 1007,9 hPa 0,0 l/m² 0,00 h 0,00 h 25 W/m² 12,4 km/h (3 Bft) 96,11 %
18.02.2026 18:00 3,4 °C 2,3 °C -1,3 °C 80 % 1007,5 hPa 0,0 l/m² 0,00 h 0,00 h 0 W/m² 9,7 km/h (2 Bft) 96,58 %
18.02.2026 19:00 2,3 °C 1,6 °C -2,1 °C 87 % 1006,9 hPa 0,0 l/m² 0,00 h 0,00 h 0 W/m² 10,6 km/h (2 Bft) 98,66 %
18.02.2026 20:00 2,2 °C 1,6 °C -1,9 °C 87 % 1006,1 hPa 0,0 l/m² 0,00 h 0,00 h 0 W/m² 11,6 km/h (2 Bft) 94,44 %
18.02.2026 21:00 3,2 °C 2,7 °C -1,1 °C 78 % 1005,2 hPa 0,0 l/m² 0,00 h 0,00 h 0 W/m² 18,6 km/h (3 Bft) 98,30 %
18.02.2026 22:00 3,9 °C 3,3 °C -0,6 °C 73 % 1004,6 hPa 0,0 l/m² 0,00 h 0,00 h 0 W/m² 21,0 km/h (4 Bft) 97,20 %
18.02.2026 23:00 3,9 °C 3,3 °C -0,6 °C 72 % 1003,5 hPa 0,0 l/m² 0,00 h 0,00 h 0 W/m² 22,0 km/h (4 Bft) 93,68 %
19.02.2026 00:00 3,8 °C 3,2 °C -0,6 °C 73 % 1002,5 hPa 0,0 l/m² 0,00 h 0,00 h 0 W/m² 23,6 km/h (4 Bft) 99,07 %
19.02.2026 01:00 3,3 °C 2,3 °C -1,7 °C 81 % 1001,8 hPa 0,2 l/m² 0,00 h 0,00 h 0 W/m² 23,9 km/h (4 Bft) 95,47 %
19.02.2026 02:00 1,9 °C 1,0 °C -2,9 °C 91 % 1001,2 hPa 1,0 l/m² 0,00 h 0,00 h 0 W/m² 21,7 km/h (4 Bft) 97,36 %
19.02.2026 03:00 1,3 °C 0,3 °C -3,5 °C 94 % 1000,6 hPa 0,7 l/m² 0,00 h 0,00 h 0 W/m² 17,1 km/h (3 Bft) 97,29 %
19.02.2026 04:00 0,6 °C 0,0 °C -3,9 °C 96 % 1000,0 hPa 0,0 l/m² 0,00 h 0,00 h 0 W/m² 11,9 km/h (2 Bft) 97,07 %
19.02.2026 05:00 0,6 °C 0,0 °C -3,9 °C 97 % 999,7 hPa 0,5 l/m² 0,00 h 0,10 h 0 W/m² 11,2 km/h (2 Bft) 94,11 %
19.02.2026 06:00 0,6 °C 0,0 °C -3,8 °C 97 % 999,7 hPa 0,5 l/m² 0,00 h 0,00 h 0 W/m² 10,3 km/h (2 Bft) 97,60 %
19.02.2026 07:00 0,6 °C 0,0 °C -3,4 °C 97 % 999,9 hPa 0,7 l/m² 0,00 h 0,03 h 0 W/m² 10,7 km/h (2 Bft) 98,80 %
19.02.2026 08:00 0,6 °C 0,0 °C -3,5 °C 98 % 1000,4 hPa 0,7 l/m² 0,00 h 0,00 h 7 W/m² 10,0 km/h (2 Bft) 95,02 %
19.02.2026 09:00 0,3 °C 0,0 °C -3,9 °C 98 % 1000,6 hPa 0,2 l/m² 0,00 h 0,07 h 14 W/m² 5,8 km/h (2 Bft) 98,94 %
19.02.2026 10:00 0,3 °C 0,1 °C -3,8 °C 98 % 1001,1 hPa 0,5 l/m² 0,00 h 0,00 h 28 W/m² 7,1 km/h (2 Bft) 95,55 %
19.02.2026 11:00 0,7 °C 0,9 °C -3,1 °C 98 % 1001,7 hPa 1,4 l/m² 0,00 h 0,00 h 55 W/m² 8,2 km/h (2 Bft) 97,85 %
19.02.2026 12:00 1,7 °C 1,9 °C -2,0 °C 99 % 1002,1 hPa 1,9 l/m² 0,00 h 0,03 h 88 W/m² 8,2 km/h (2 Bft) 96,52 %
19.02.2026 13:00 2,7 °C 3,0 °C -1,3 °C 99 % 1002,5 hPa 1,4 l/m² 0,00 h 0,00 h 124 W/m² 13,9 km/h (3 Bft) 98,13 %
19.02.2026 14:00 3,7 °C 4,2 °C -0,8 °C 97 % 1003,0 hPa 0,2 l/m² 0,00 h 0,00 h 123 W/m² 15,9 km/h (3 Bft) 97,29 %
19.02.2026 15:00 4,6 °C 4,7 °C 0,0 °C 90 % 1003,8 hPa 0,0 l/m² 0,03 h 0,00 h 93 W/m² 16,3 km/h (3 Bft) 94,64 %
19.02.2026 16:00 4,6 °C 4,4 °C 0,0 °C 88 % 1004,7 hPa 0,2 l/m² 0,00 h 0,00 h 42 W/m² 15,4 km/h (3 Bft) 96,36 %
19.02.2026 17:00 4,7 °C 4,1 °C 0,4 °C 86 % 1005,6 hPa 0,0 l/m² 0,00 h 0,00 h 18 W/m² 13,2 km/h (3 Bft) 95,74 %
19.02.2026 18:00 4,5 °C 3,9 °C 0,0 °C 86 % 1007,2 hPa 0,0 l/m² 0,00 h 0,00 h 0 W/m² 13,6 km/h (3 Bft) 96,98 %
19.02.2026 19:00 4,2 °C 3,6 °C 0,0 °C 87 % 1008,8 hPa 0,0 l/m² 0,00 h 0,00 h 0 W/m² 14,0 km/h (3 Bft) 98,15 %
19.02.2026 20:00 4,2 °C 3,8 °C 0,0 °C 86 % 1010,1 hPa 0,0 l/m² 0,00 h 0,00 h 0 W/m² 14,3 km/h (3 Bft) 94,59 %
19.02.2026 21:00 4,2 °C 3,5 °C 0,0 °C 86 % 1011,3 hPa 0,0 l/m² 0,00 h 0,00 h 0 W/m² 8,4 km/h (2 Bft) 96,94 %
19.02.2026 22:00 3,9 °C 3,0 °C -0,7 °C 87 % 1012,3 hPa 0,0 l/m² 0,00 h 0,00 h 0 W/m² 5,9 km/h (2 Bft) 99,00 %
19.02.2026 23:00 3,4 °C 2,8 °C -0,9 °C 86 % 1012,9 hPa 0,0 l/m² 0,00 h 0,00 h 0 W/m² 14,5 km/h (3 Bft) 96,23 %
20.02.2026 00:00 2,8 °C 1,9 °C -1,6 °C 84 % 1013,9 hPa 0,0 l/m² 0,00 h 0,00 h 0 W/m² 8,9 km/h (2 Bft) 97,90 %
20.02.2026 01:00 2,2 °C 1,3 °C -2,1 °C 84 % 1015,3 hPa 0,0 l/m² 0,00 h 0,00 h 0 W/m² 6,6 km/h (2 Bft) 96,29 %
20.02.2026 02:00 2,1 °C 1,7 °C -2,1 °C 85 % 1015,9 hPa 0,0 l/m² 0,00 h 0,00 h 0 W/m² 11,9 km/h (2 Bft) 98,08 %
20.02.2026 03:00 2,1 °C 1,6 °C -2,0 °C 85 % 1016,5 hPa 0,0 l/m² 0,00 h 0,00 h 0 W/m² 12,8 km/h (3 Bft) 95,24 %
20.02.2026 04:00 1,8 °C 1,1 °C -2,2 °C 85 % 1017,0 hPa 0,0 l/m² 0,00 h 0,00 h 0 W/m² 16,2 km/h (3 Bft) 98,61 %
20.02.2026 05:00 1,8 °C 1,1 °C -2,2 °C 86 % 1017,7 hPa 0,0 l/m² 0,00 h 0,00 h 0 W/m² 18,9 km/h (3 Bft) 98,51 %
20.02.2026 06:00 1,7 °C 1,1 °C -2,2 °C 85 % 1018,2 hPa 0,0 l/m² 0,00 h 0,00 h 0 W/m² 19,2 km/h (3 Bft) 95,61 %
20.02.2026 07:00 1,7 °C 1,1 °C -2,2 °C 86 % 1019,3 hPa 0,0 l/m² 0,00 h 0,00 h 5 W/m² 18,4 km/h (3 Bft) 99,06 %
20.02.2026 08:00 1,8 °C 1,4 °C -2,2 °C 87 % 1019,9 hPa 0,0 l/m² 0,00 h 0,00 h 19 W/m² 18,3 km/h (3 Bft) 94,95 %
20.02.2026 09:00 2,1 °C 1,7 °C -2,2 °C 88 % 1020,4 hPa 0,0 l/m² 0,00 h 0,00 h 36 W/m² 18,2 km/h (3 Bft) 95,77 %
20.02.2026 10:00 2,2 °C 1,7 °C -2,0 °C 91 % 1020,9 hPa 0,0 l/m² 0,00 h 0,00 h 51 W/m² 15,0 km/h (3 Bft) 97,35 %
20.02.2026 11:00 2,4 °C 1,7 °C -2,2 °C 94 % 1021,1 hPa 0,0 l/m² 0,00 h 0,00 h 44 W/m² 15,2 km/h (3 Bft) 96,93 %
20.02.2026 12:00 2,8 °C 2,5 °C 6,1 °C 96 % 1021,0 hPa 0,0 l/m² 0,00 h 0,00 h 80 W/m² 13,2 km/h (3 Bft) 98,16 %
20.02.2026 13:00 3,9 °C 3,8 °C 1,4 °C 97 % 1021,0 hPa 0,0 l/m² 0,00 h 0,00 h 47 W/m² 10,1 km/h (2 Bft) 97,86 %
20.02.2026 14:00 5,3 °C 5,6 °C 1,6 °C 96 % 1020,7 hPa 0,0 l/m² 0,00 h 0,00 h 84 W/m² 17,0 km/h (3 Bft) 96,80 %
20.02.2026 15:00 6,2 °C 6,1 °C 2,0 °C 88 % 1020,5 hPa 0,0 l/m² 0,00 h 0,00 h 71 W/m² 16,2 km/h (3 Bft) 98,19 %
20.02.2026 16:00 6,7 °C 6,3 °C 2,2 °C 86 % 1019,8 hPa 0,0 l/m² 0,00 h 0,00 h 56 W/m² 15,9 km/h (3 Bft) 96,55 %
20.02.2026 17:00 6,7 °C 6,1 °C 2,2 °C 86 % 1019,5 hPa 0,0 l/m² 0,00 h 0,00 h 13 W/m² 13,1 km/h (3 Bft) 97,79 %
20.02.2026 18:00 6,5 °C 5,7 °C 1,7 °C 88 % 1019,2 hPa 0,0 l/m² 0,00 h 0,00 h 0 W/m² 10,2 km/h (2 Bft) 96,30 %
20.02.2026 19:00 6,3 °C 5,6 °C 1,1 °C 91 % 1018,9 hPa 0,2 l/m² 0,00 h 0,00 h 0 W/m² 13,6 km/h (3 Bft) 97,65 %
20.02.2026 20:00 6,3 °C 5,6 °C 1,1 °C 93 % 1018,1 hPa 0,5 l/m² 0,00 h 0,00 h 0 W/m² 15,2 km/h (3 Bft) 96,22 %
20.02.2026 21:00 6,5 °C 5,9 °C 1,4 °C 94 % 1017,4 hPa 0,2 l/m² 0,00 h 0,00 h 0 W/m² 18,0 km/h (3 Bft) 97,72 %
20.02.2026 22:00 7,2 °C 6,4 °C 2,0 °C 93 % 1016,5 hPa 0,0 l/m² 0,00 h 0,00 h 0 W/m² 27,7 km/h (4 Bft) 98,44 %
20.02.2026 23:00 7,9 °C 7,1 °C 2,6 °C 93 % 1015,7 hPa 0,2 l/m² 0,00 h 0,00 h 0 W/m² 29,8 km/h (5 Bft) 97,72 %
21.02.2026 00:00 8,2 °C 7,6 °C 2,8 °C 93 % 1015,3 hPa 0,0 l/m² 0,00 h 0,00 h 0 W/m² 26,4 km/h (4 Bft) 96,67 %
21.02.2026 01:00 8,4 °C 7,5 °C 3,2 °C 94 % 1015,5 hPa 0,0 l/m² 0,00 h 0,00 h 0 W/m² 20,7 km/h (4 Bft) 97,27 %
21.02.2026 02:00 8,2 °C 7,2 °C 3,3 °C 95 % 1016,0 hPa 0,0 l/m² 0,00 h 0,00 h 0 W/m² 16,5 km/h (3 Bft) 96,61 %
21.02.2026 03:00 8,1 °C 7,3 °C 3,3 °C 95 % 1016,4 hPa 0,0 l/m² 0,00 h 0,00 h 0 W/m² 14,9 km/h (3 Bft) 97,43 %
21.02.2026 04:00 7,9 °C 7,1 °C 3,5 °C 95 % 1016,9 hPa 0,0 l/m² 0,00 h 0,00 h 0 W/m² 11,3 km/h (2 Bft) 99,08 %
21.02.2026 05:00 8,3 °C 7,8 °C 3,9 °C 95 % 1017,5 hPa 0,0 l/m² 0,00 h 0,00 h 0 W/m² 15,5 km/h (3 Bft) 95,95 %
21.02.2026 06:00 8,3 °C 7,4 °C 3,9 °C 93 % 1018,0 hPa 0,0 l/m² 0,00 h 0,00 h 0 W/m² 15,3 km/h (3 Bft) 98,66 %
21.02.2026 07:00 8,0 °C 7,2 °C 3,5 °C 93 % 1018,6 hPa 0,0 l/m² 0,00 h 0,00 h 8 W/m² 13,5 km/h (3 Bft) 96,77 %
21.02.2026 08:00 8,2 °C 7,6 °C 4,0 °C 92 % 1019,3 hPa 0,0 l/m² 0,00 h 0,00 h 40 W/m² 14,5 km/h (3 Bft) 96,59 %
21.02.2026 09:00 8,6 °C 8,7 °C 4,5 °C 92 % 1019,7 hPa 0,0 l/m² 0,03 h 0,00 h 102 W/m² 13,8 km/h (3 Bft) 97,51 %
21.02.2026 10:00 9,7 °C 11,8 °C 6,2 °C 88 % 1020,2 hPa 0,0 l/m² 0,97 h 0,00 h 232 W/m² 15,9 km/h (3 Bft) 97,37 %
21.02.2026 11:00 10,1 °C 10,4 °C 6,2 °C 86 % 1020,5 hPa 0,0 l/m² 0,07 h 0,00 h 161 W/m² 17,7 km/h (3 Bft) 95,65 %
21.02.2026 12:00 10,2 °C 10,8 °C 6,3 °C 88 % 1020,5 hPa 0,0 l/m² 0,07 h 0,00 h 178 W/m² 15,7 km/h (3 Bft) 99,37 %
21.02.2026 13:00 10,3 °C 10,1 °C 6,1 °C 89 % 1020,3 hPa 0,0 l/m² 0,00 h 0,00 h 105 W/m² 13,7 km/h (3 Bft) 97,41 %
21.02.2026 14:00 10,0 °C 9,4 °C 5,1 °C 93 % 1020,4 hPa 0,2 l/m² 0,00 h 0,00 h 80 W/m² 12,9 km/h (3 Bft) 96,46 %
21.02.2026 15:00 9,9 °C 9,4 °C 5,4 °C 96 % 1020,0 hPa 0,0 l/m² 0,00 h 0,00 h 58 W/m² 13,5 km/h (3 Bft) 98,21 %
21.02.2026 16:00 10,1 °C 9,2 °C 5,6 °C 97 % 1020,2 hPa 0,2 l/m² 0,00 h 0,00 h 20 W/m² 13,4 km/h (3 Bft) 97,72 %
21.02.2026 17:00 9,9 °C 9,1 °C 5,6 °C 98 % 1020,6 hPa 0,2 l/m² 0,00 h 0,00 h 9 W/m² 11,3 km/h (2 Bft) 96,16 %
21.02.2026 18:00 9,8 °C 9,1 °C 5,1 °C 98 % 1021,0 hPa 0,0 l/m² 0,00 h 0,00 h 0 W/m² 9,5 km/h (2 Bft) 99,80 %
21.02.2026 19:00 9,8 °C 9,4 °C 5,1 °C 98 % 1021,1 hPa 0,0 l/m² 0,00 h 0,00 h 0 W/m² 12,8 km/h (3 Bft) 95,59 %
21.02.2026 20:00 10,0 °C 9,3 °C 5,6 °C 96 % 1021,0 hPa 0,0 l/m² 0,00 h 0,00 h 0 W/m² 17,9 km/h (3 Bft) 98,58 %
21.02.2026 21:00 9,9 °C 8,9 °C 5,6 °C 97 % 1020,7 hPa 0,5 l/m² 0,00 h 0,00 h 0 W/m² 11,7 km/h (2 Bft) 98,01 %
21.02.2026 22:00 10,0 °C 9,1 °C 5,7 °C 98 % 1020,2 hPa 0,2 l/m² 0,00 h 0,00 h 0 W/m² 15,1 km/h (3 Bft) 97,08 %
21.02.2026 23:00 10,4 °C 9,5 °C 6,2 °C 99 % 1020,0 hPa 0,0 l/m² 0,00 h 0,00 h 0 W/m² 13,0 km/h (3 Bft) 97,42 %
22.02.2026 00:00 10,7 °C 10,0 °C 6,7 °C 99 % 1019,9 hPa 1,2 l/m² 0,00 h 0,47 h 0 W/m² 10,4 km/h (2 Bft) 98,23 %
22.02.2026 01:00 11,0 °C 10,0 °C 6,8 °C 100 % 1019,1 hPa 0,7 l/m² 0,00 h 0,73 h 0 W/m² 18,9 km/h (3 Bft) 96,09 %
22.02.2026 02:00 11,2 °C 10,5 °C 7,2 °C 100 % 1018,8 hPa 0,2 l/m² 0,00 h 0,60 h 0 W/m² 17,8 km/h (3 Bft) 98,47 %
22.02.2026 03:00 11,2 °C 10,6 °C 7,2 °C 99 % 1018,6 hPa 0,0 l/m² 0,00 h 0,03 h 0 W/m² 13,8 km/h (3 Bft) 97,08 %
22.02.2026 04:00 11,3 °C 10,6 °C 7,2 °C 99 % 1018,4 hPa 0,0 l/m² 0,00 h 0,03 h 0 W/m² 15,0 km/h (3 Bft) 96,51 %
22.02.2026 05:00 11,3 °C 10,6 °C 7,2 °C 99 % 1017,9 hPa 0,2 l/m² 0,00 h 0,30 h 0 W/m² 14,8 km/h (3 Bft) 98,29 %
22.02.2026 06:00 11,3 °C 10,6 °C 7,2 °C 99 % 1017,8 hPa 0,0 l/m² 0,00 h 0,38 h 0 W/m² 17,5 km/h (3 Bft) 97,10 %
22.02.2026 07:00 11,4 °C 10,6 °C 7,2 °C 98 % 1017,8 hPa 0,0 l/m² 0,00 h 0,23 h 4 W/m² 19,6 km/h (3 Bft) 97,43 %
22.02.2026 08:00 11,5 °C 10,9 °C 7,2 °C 98 % 1017,7 hPa 0,0 l/m² 0,00 h 0,03 h 12 W/m² 16,3 km/h (3 Bft) 97,50 %
22.02.2026 09:00 11,9 °C 11,5 °C 7,6 °C 97 % 1017,4 hPa 0,0 l/m² 0,00 h 0,03 h 36 W/m² 19,7 km/h (3 Bft) 98,78 %
22.02.2026 10:00 12,3 °C 11,7 °C 7,9 °C 95 % 1017,0 hPa 0,0 l/m² 0,00 h 0,00 h 44 W/m² 23,4 km/h (4 Bft) 96,20 %
22.02.2026 11:00 12,3 °C 11,5 °C 8,0 °C 95 % 1016,8 hPa 0,7 l/m² 0,00 h 0,37 h 59 W/m² 22,1 km/h (4 Bft) 97,37 %
22.02.2026 12:00 12,1 °C 11,6 °C 7,8 °C 97 % 1016,5 hPa 0,7 l/m² 0,00 h 1,00 h 79 W/m² 23,3 km/h (4 Bft) 98,43 %
22.02.2026 13:00 12,2 °C 11,6 °C 7,8 °C 97 % 1016,1 hPa 0,5 l/m² 0,00 h 1,00 h 82 W/m² 22,7 km/h (4 Bft) 97,48 %
22.02.2026 14:00 12,0 °C 11,1 °C 7,8 °C 98 % 1015,9 hPa 0,7 l/m² 0,00 h 0,83 h 64 W/m² 18,5 km/h (3 Bft) 96,85 %
22.02.2026 15:00 11,8 °C 11,2 °C 7,8 °C 99 % 1015,8 hPa 0,0 l/m² 0,00 h 0,43 h 43 W/m² 18,1 km/h (3 Bft) 99,37 %
22.02.2026 16:00 11,7 °C 11,1 °C 7,7 °C 98 % 1016,0 hPa 0,2 l/m² 0,00 h 0,07 h 19 W/m² 17,4 km/h (3 Bft) 95,53 %
22.02.2026 17:00 11,5 °C 10,6 °C 7,2 °C 97 % 1015,9 hPa 0,5 l/m² 0,00 h 0,50 h 9 W/m² 16,0 km/h (3 Bft) 98,65 %
22.02.2026 18:00 11,1 °C 10,6 °C 7,2 °C 98 % 1015,8 hPa 0,2 l/m² 0,00 h 0,23 h 0 W/m² 16,7 km/h (3 Bft) 98,43 %
22.02.2026 19:00 11,0 °C 10,6 °C 7,1 °C 98 % 1016,1 hPa 0,0 l/m² 0,00 h 0,03 h 0 W/m² 18,1 km/h (3 Bft) 95,33 %
22.02.2026 20:00 10,9 °C 10,1 °C 6,7 °C 97 % 1016,2 hPa 0,2 l/m² 0,00 h 0,00 h 0 W/m² 13,0 km/h (3 Bft) 98,72 %
22.02.2026 21:00 10,6 °C 9,8 °C 6,7 °C 98 % 1016,2 hPa 0,5 l/m² 0,00 h 0,40 h 0 W/m² 11,6 km/h (2 Bft) 98,08 %
22.02.2026 22:00 10,6 °C 10,0 °C 6,7 °C 98 % 1016,2 hPa 0,0 l/m² 0,00 h 0,77 h 0 W/m² 14,5 km/h (3 Bft) 95,42 %
22.02.2026 23:00 10,3 °C 9,7 °C 6,3 °C 98 % 1016,1 hPa 0,0 l/m² 0,00 h 0,87 h 0 W/m² 17,9 km/h (3 Bft) 98,67 %
Min-Datum _ 19.02.26 16.02.26 16.02.26 18.02.26 16.02.26 - - - - 16.02.26 18.02.26
_ Min-Zeit 09:16 00:48 00:56 15:00 03:40 - - - - 04:06 00:02
Minimum _ 0,3 °C -0,6 °C -4,4 °C 68 % 994,3 hPa - - - - 0,0 km/h (0 Bft) 11,11 %
Max-Datum _ 22.02.26 18.02.26 22.02.26 22.02.26 21.02.26 16.02.26 18.02.26 16.02.26 18.02.26 20.02.26 16.02.26
_ Max-Zeit 11:02 13:18 10:46 01:22 19:50 20:04 15:12 04:05 13:20 23:36 00:08
Maximum _ 12,4 °C 16,1 °C 8,3 °C 100 % 1021,3 hPa 2,6 l/m² 0,08 h 0,08 h 632 W/m² 45,1 km/h
S-SW (6 Bft)
100,00 %
Durchschnitt _ 5,5 °C 5,2 °C 1,4 °C 92 % 1010,5 hPa #42,2 l/m² #9:25 h #12:11 h 88 W/m² 13,6 km/h (3 Bft) 97,16 %
© 2026 W. Hausmann